Time;durP1;ratioP1;P1;durP2;ratioP2;P2;SDS_P1;SDS_P2;PMS_P1;PMS_P2;Temp;Humidity;BMP_temperature;BMP_pressure;BME280_temperature;BME280_humidity;BME280_pressure;Samples;Min_cycle;Max_cycle;Signal;HPM_P1;HPM_P2
2023/03/04 00:02:12;;;;;;;29.70;12.70;;;;;;;3.11;68.45;100589.72;5024767;28;20549;-82
2023/03/04 00:04:38;;;;;;;33.00;13.35;;;;;;;3.12;68.66;100591.41;5020223;28;20068;-82
2023/03/04 00:07:05;;;;;;;29.00;12.25;;;;;;;3.11;68.89;100587.94;5021759;28;20068;-81
2023/03/04 00:09:32;;;;;;;27.90;11.93;;;;;;;3.03;68.91;100590.06;4994051;28;20051;-82
2023/03/04 00:11:59;;;;;;;26.65;11.90;;;;;;;2.98;69.07;100592.91;5002572;28;20104;-82
2023/03/04 00:14:25;;;;;;;24.95;11.77;;;;;;;2.93;69.24;100605.38;4989435;28;20046;-83
2023/03/04 00:16:56;;;;;;;28.80;12.85;;;;;;;2.95;69.16;100597.41;5009453;28;20053;-83
2023/03/04 00:19:22;;;;;;;25.95;12.15;;;;;;;2.91;69.10;100595.88;5038930;28;20114;-81
2023/03/04 00:21:49;;;;;;;27.48;12.18;;;;;;;2.91;68.66;100595.88;5005778;28;20044;-82
2023/03/04 00:24:16;;;;;;;27.95;11.95;;;;;;;2.79;68.99;100592.00;5038087;28;20907;-82
2023/03/04 00:26:43;;;;;;;25.00;10.93;;;;;;;2.76;69.23;100593.00;5029872;28;20095;-81
2023/03/04 00:29:09;;;;;;;25.33;11.77;;;;;;;2.89;69.16;100597.69;5020570;28;20654;-82
2023/03/04 00:31:36;;;;;;;26.20;11.73;;;;;;;2.88;69.17;100588.97;4989998;28;20094;-81
2023/03/04 00:34:03;;;;;;;26.15;12.73;;;;;;;2.90;69.07;100597.66;5005320;28;20048;-81
2023/03/04 00:36:30;;;;;;;25.63;12.13;;;;;;;2.92;68.98;100600.19;5021314;28;20502;-82
2023/03/04 00:38:57;;;;;;;33.55;12.20;;;;;;;2.97;68.88;100599.03;5025923;28;20128;-83
2023/03/04 00:41:24;;;;;;;26.38;12.20;;;;;;;2.94;68.93;100600.97;5009299;28;20107;-82
2023/03/04 00:43:51;;;;;;;29.42;11.95;;;;;;;2.90;69.13;100602.88;5002529;28;20041;-82
2023/03/04 00:46:17;;;;;;;29.48;11.30;;;;;;;2.83;68.74;100610.16;5020555;28;20408;-81
2023/03/04 00:48:44;;;;;;;23.30;11.98;;;;;;;2.72;69.05;100611.53;5029197;28;20056;-81
2023/03/04 00:51:11;;;;;;;29.85;12.32;;;;;;;2.82;69.18;100610.22;5007508;28;20053;-81
2023/03/04 00:53:38;;;;;;;21.38;10.60;;;;;;;2.85;68.94;100602.25;5005641;28;20047;-81
2023/03/04 00:56:05;;;;;;;22.42;10.63;;;;;;;2.87;68.90;100603.00;5025135;28;20094;-81
2023/03/04 00:58:32;;;;;;;25.65;11.30;;;;;;;2.84;68.88;100603.13;5018740;28;20049;-81
2023/03/04 01:00:58;;;;;;;25.38;12.20;;;;;;;2.83;69.05;100604.06;5005256;28;20111;-81
2023/03/04 01:03:25;;;;;;;26.95;11.45;;;;;;;2.75;69.03;100599.16;5015338;28;20045;-81
2023/03/04 01:05:52;;;;;;;26.60;10.88;;;;;;;2.78;68.92;100598.19;5006753;28;20099;-82
2023/03/04 01:08:19;;;;;;;26.38;11.13;;;;;;;2.72;69.38;100601.06;5034817;28;20055;-81
2023/03/04 01:10:47;;;;;;;30.65;12.75;;;;;;;2.74;69.27;100600.06;5018763;28;20045;-82
2023/03/04 01:13:14;;;;;;;24.88;11.30;;;;;;;2.67;68.84;100597.78;5012539;28;20111;-82
2023/03/04 01:15:42;;;;;;;25.35;11.02;;;;;;;2.75;68.67;100599.16;5017460;28;20149;-81
2023/03/04 01:18:08;;;;;;;22.48;11.45;;;;;;;2.56;69.18;100603.50;5009554;28;20474;-81
2023/03/04 01:20:35;;;;;;;20.95;10.80;;;;;;;2.53;68.85;100593.16;5020615;28;20048;-82
2023/03/04 01:23:02;;;;;;;24.23;11.52;;;;;;;2.57;68.83;100599.94;5027478;28;20458;-81
2023/03/04 01:25:29;;;;;;;24.85;11.60;;;;;;;2.60;68.97;100603.31;5012510;28;20053;-81
2023/03/04 01:27:57;;;;;;;26.52;11.23;;;;;;;2.58;68.97;100594.66;5011615;28;20058;-81
2023/03/04 01:30:24;;;;;;;24.63;11.38;;;;;;;2.57;69.11;100587.72;5016540;28;20061;-81
2023/03/04 01:32:51;;;;;;;22.63;10.63;;;;;;;2.59;68.95;100601.56;5019122;28;20484;-82
2023/03/04 01:35:17;;;;;;;22.70;10.43;;;;;;;2.58;68.65;100591.19;5020649;28;20090;-82
2023/03/04 01:37:44;;;;;;;22.77;10.10;;;;;;;2.53;68.51;100590.53;5022397;28;23648;-81
2023/03/04 01:40:12;;;;;;;23.67;9.77;;;;;;;2.49;68.87;100589.78;5017274;28;20045;-81
2023/03/04 01:42:39;;;;;;;27.17;11.45;;;;;;;2.56;68.94;100591.22;5029453;28;20103;-81
2023/03/04 01:45:06;;;;;;;27.38;12.02;;;;;;;2.52;68.85;100584.44;5013942;28;20049;-82
2023/03/04 01:47:34;;;;;;;26.35;11.00;;;;;;;2.43;68.85;100583.97;5005621;28;20048;-81
2023/03/04 01:50:04;;;;;;;26.05;11.57;;;;;;;2.37;69.02;100575.44;5024985;28;20128;-81
2023/03/04 01:52:31;;;;;;;27.02;11.50;;;;;;;2.42;69.10;100571.75;5009917;28;20556;-81
2023/03/04 01:54:58;;;;;;;25.85;10.82;;;;;;;2.37;69.07;100575.44;5016736;28;20060;-82
2023/03/04 01:57:25;;;;;;;23.50;10.77;;;;;;;2.33;69.20;100578.25;5018955;28;20045;-81
2023/03/04 02:00:13;;;;;;;25.75;11.32;;;;;;;2.28;69.25;100577.59;5018064;28;20505;-81
2023/03/04 02:02:40;;;;;;;25.42;11.88;;;;;;;2.34;68.98;100572.09;5020166;28;20049;-82
2023/03/04 02:05:07;;;;;;;24.65;11.15;;;;;;;2.32;69.19;100566.09;4998686;28;20524;-82
2023/03/04 02:07:34;;;;;;;27.70;11.63;;;;;;;2.27;69.33;100562.81;5031128;28;20132;-81
2023/03/04 02:10:02;;;;;;;26.83;10.43;;;;;;;2.21;69.08;100565.66;5021545;28;20052;-83
2023/03/04 02:12:28;;;;;;;25.40;10.85;;;;;;;2.15;69.54;100564.16;5002516;28;20048;-82
2023/03/04 02:14:55;;;;;;;25.73;11.32;;;;;;;2.16;69.27;100558.88;5036447;28;20393;-82
2023/03/04 02:17:25;;;;;;;22.00;9.43;;;;;;;2.09;69.39;100552.19;5000545;28;20510;-83
2023/03/04 02:20:02;;;;;;;21.73;10.40;;;;;;;2.19;69.37;100560.50;5006196;28;20055;-83
2023/03/04 02:22:29;;;;;;;23.58;10.32;;;;;;;2.13;69.74;100561.59;5002526;28;20049;-82
2023/03/04 02:25:00;;;;;;;23.27;10.65;;;;;;;2.10;69.59;100561.72;4992325;28;20091;-82
2023/03/04 02:27:26;;;;;;;22.40;9.38;;;;;;;2.08;68.93;100560.09;5017687;28;20049;-82
2023/03/04 02:29:53;;;;;;;23.45;10.75;;;;;;;2.00;69.76;100556.94;5016490;28;20738;-83
2023/03/04 02:32:20;;;;;;;20.13;9.43;;;;;;;1.99;69.79;100563.13;5018798;28;20464;-82
2023/03/04 02:34:50;;;;;;;21.58;10.07;;;;;;;1.89;69.63;100565.25;5016523;28;20118;-81
2023/03/04 02:37:20;;;;;;;29.17;12.00;;;;;;;1.98;69.33;100566.63;5021892;28;20412;-82
2023/03/04 02:39:50;;;;;;;25.75;10.98;;;;;;;1.98;69.60;100561.41;5016700;28;20132;-82
2023/03/04 02:42:17;;;;;;;20.25;10.30;;;;;;;1.92;69.91;100559.88;5005540;28;20134;-81
2023/03/04 02:44:47;;;;;;;21.25;9.45;;;;;;;1.96;69.98;100564.09;5006801;28;20052;-82
2023/03/04 02:47:17;;;;;;;23.13;10.27;;;;;;;1.90;70.05;100561.72;4988940;28;20049;-82
2023/03/04 02:49:45;;;;;;;24.83;11.88;;;;;;;2.08;69.60;100567.97;5006795;28;20049;-85
2023/03/04 02:52:20;;;;;;;23.27;10.73;;;;;;;1.95;69.72;100560.59;5022287;28;20064;-82
2023/03/04 02:54:47;;;;;;;20.02;10.10;;;;;;;1.97;69.63;100555.31;5020068;28;20045;-82
2023/03/04 02:57:15;;;;;;;21.13;9.90;;;;;;;1.87;70.11;100552.22;5001124;28;20479;-81
2023/03/04 02:59:45;;;;;;;23.90;10.65;;;;;;;1.91;69.87;100559.03;4980069;28;20109;-82
2023/03/04 03:02:17;;;;;;;23.83;10.85;;;;;;;1.84;69.69;100548.88;4971422;28;20053;-82
2023/03/04 03:04:44;;;;;;;22.55;10.52;;;;;;;1.84;69.57;100560.19;5009358;28;20633;-81
2023/03/04 03:07:13;;;;;;;21.50;10.43;;;;;;;1.85;69.19;100547.94;4998901;28;20099;-82
2023/03/04 03:09:40;;;;;;;22.70;10.00;;;;;;;1.74;69.28;100544.00;4993701;28;20103;-82
2023/03/04 03:12:07;;;;;;;21.15;9.88;;;;;;;1.82;69.45;100548.94;5018860;28;20052;-84
2023/03/04 03:14:34;;;;;;;22.17;10.15;;;;;;;1.69;69.55;100545.13;5015511;28;20496;-82
2023/03/04 03:17:02;;;;;;;21.25;9.35;;;;;;;1.71;69.20;100546.75;5001803;28;20492;-81
2023/03/04 03:19:30;;;;;;;20.77;8.43;;;;;;;1.62;69.25;100554.13;5016216;28;20065;-82
2023/03/04 03:21:58;;;;;;;22.13;9.63;;;;;;;1.72;69.48;100551.06;5003121;28;20079;-82
2023/03/04 03:24:26;;;;;;;20.58;9.35;;;;;;;1.64;70.13;100544.44;5023980;28;20041;-81
2023/03/04 03:26:52;;;;;;;22.52;9.77;;;;;;;1.51;70.23;100542.31;5009060;28;20046;-82
2023/03/04 03:29:19;;;;;;;22.15;9.35;;;;;;;1.50;70.00;100544.97;5032586;28;20049;-85
2023/03/04 03:31:46;;;;;;;22.30;10.15;;;;;;;1.45;69.76;100541.69;5039255;28;20095;-81
2023/03/04 03:34:13;;;;;;;20.50;9.05;;;;;;;1.40;69.65;100548.88;4990801;28;20064;-82
2023/03/04 03:36:40;;;;;;;23.10;9.25;;;;;;;1.29;70.03;100549.28;5016814;28;20223;-85
2023/03/04 03:39:07;;;;;;;25.42;9.57;;;;;;;1.33;69.74;100556.13;5019837;28;20049;-82
2023/03/04 03:41:34;;;;;;;21.13;9.65;;;;;;;1.50;69.24;100564.19;5036791;28;20128;-82
2023/03/04 03:44:01;;;;;;;24.05;10.88;;;;;;;1.51;69.30;100554.56;5032530;28;20064;-84
2023/03/04 03:46:28;;;;;;;23.27;9.60;;;;;;;1.36;69.65;100561.22;5024833;28;20053;-82
2023/03/04 03:48:55;;;;;;;19.27;9.23;;;;;;;1.30;68.80;100559.72;5041770;28;20041;-82
2023/03/04 03:51:22;;;;;;;21.67;8.45;;;;;;;1.25;69.24;100552.97;5025468;28;20613;-85
2023/03/04 03:53:48;;;;;;;20.20;9.18;;;;;;;1.36;69.71;100565.63;5013514;28;20124;-82
2023/03/04 03:56:15;;;;;;;20.83;8.95;;;;;;;1.27;70.17;100572.91;5023877;28;20132;-81
2023/03/04 03:58:42;;;;;;;21.17;9.25;;;;;;;1.39;70.11;100566.34;5021671;28;20041;-81
2023/03/04 04:01:09;;;;;;;21.20;9.73;;;;;;;1.39;70.40;100579.44;5001668;28;20483;-81
2023/03/04 04:03:35;;;;;;;22.92;9.68;;;;;;;1.37;70.42;100583.84;5009058;28;20056;-82
2023/03/04 04:06:02;;;;;;;22.70;10.35;;;;;;;1.37;70.48;100578.63;5028510;28;20550;-82
2023/03/04 04:08:29;;;;;;;18.00;8.60;;;;;;;1.52;69.88;100578.03;5021765;28;20041;-81
2023/03/04 04:10:55;;;;;;;20.13;8.82;;;;;;;1.38;70.11;100582.97;5004150;28;20096;-81
2023/03/04 04:13:22;;;;;;;23.85;9.77;;;;;;;1.36;70.34;100584.78;5034594;28;20420;-81
2023/03/04 04:15:52;;;;;;;22.52;8.98;;;;;;;1.41;70.12;100592.47;5035762;28;20041;-81
2023/03/04 04:18:19;;;;;;;21.65;9.52;;;;;;;1.36;70.54;100592.63;5009610;28;20080;-82
2023/03/04 04:20:46;;;;;;;22.17;9.15;;;;;;;1.35;70.56;100592.69;5021359;28;20064;-82
2023/03/04 04:23:13;;;;;;;20.13;8.85;;;;;;;1.29;70.49;100606.84;5019074;28;20040;-82
2023/03/04 04:25:40;;;;;;;19.92;9.60;;;;;;;1.36;70.06;100594.41;5024899;28;20045;-82
2023/03/04 04:28:06;;;;;;;22.02;9.57;;;;;;;1.26;69.44;100599.97;5029889;28;20056;-81
2023/03/04 04:30:34;;;;;;;19.02;8.85;;;;;;;1.29;69.60;100592.00;5030425;28;20049;-82
2023/03/04 04:33:03;;;;;;;23.48;9.52;;;;;;;1.25;70.16;100594.81;5018994;28;20049;-82
2023/03/04 04:35:34;;;;;;;21.98;8.88;;;;;;;1.22;69.72;100589.69;5020650;28;20045;-81
2023/03/04 04:38:01;;;;;;;22.60;10.15;;;;;;;1.24;70.29;100591.31;5006612;28;20488;-81
2023/03/04 04:40:27;;;;;;;20.33;9.77;;;;;;;1.24;70.16;100593.94;5021551;28;20045;-82
2023/03/04 04:42:54;;;;;;;23.88;9.80;;;;;;;1.14;69.83;100604.81;4993284;28;20048;-82
2023/03/04 04:45:21;;;;;;;18.88;9.00;;;;;;;1.11;69.61;100599.69;5014450;28;20060;-82
2023/03/04 04:47:48;;;;;;;24.38;9.40;;;;;;;1.12;69.40;100598.78;5015074;28;20049;-82
2023/03/04 04:50:15;;;;;;;25.30;10.07;;;;;;;1.11;69.06;100602.31;5007730;28;20051;-82
2023/03/04 04:52:42;;;;;;;23.60;10.55;;;;;;;0.98;69.13;100605.38;5004707;28;20488;-82
2023/03/04 04:55:09;;;;;;;21.90;9.00;;;;;;;0.93;69.22;100606.47;5014300;28;20041;-82
2023/03/04 04:57:36;;;;;;;24.95;11.05;;;;;;;0.91;69.28;100597.81;5011799;28;20087;-80
2023/03/04 05:00:04;;;;;;;20.15;9.77;;;;;;;0.86;69.68;100604.06;4991213;28;20045;-82
2023/03/04 05:02:35;;;;;;;18.33;8.65;;;;;;;0.90;69.66;100599.59;5029345;28;20041;-82
2023/03/04 05:05:03;;;;;;;20.20;9.73;;;;;;;0.90;69.64;100607.44;5018008;28;22489;-84
2023/03/04 05:07:29;;;;;;;20.55;8.82;;;;;;;0.94;69.71;100597.69;5023364;28;20049;-82
2023/03/04 05:09:56;;;;;;;20.25;8.82;;;;;;;0.96;69.52;100601.97;5019797;28;20590;-82
2023/03/04 05:12:23;;;;;;;21.98;9.88;;;;;;;0.85;70.13;100609.34;5023155;28;20057;-82
2023/03/04 05:14:49;;;;;;;20.48;9.23;;;;;;;0.79;69.99;100599.09;5009744;28;20049;-81
2023/03/04 05:17:16;;;;;;;22.08;7.97;;;;;;;0.89;69.70;100595.28;5006466;28;20447;-82
2023/03/04 05:19:43;;;;;;;17.08;8.82;;;;;;;0.78;70.01;100593.03;5032677;28;20210;-82
2023/03/04 05:22:10;;;;;;;21.80;10.02;;;;;;;0.77;69.95;100590.47;5033986;28;20049;-82
2023/03/04 05:24:37;;;;;;;19.80;9.13;;;;;;;0.81;70.01;100597.28;5020657;28;20484;-81
2023/03/04 05:27:03;;;;;;;20.63;9.85;;;;;;;0.75;70.50;100600.13;5022997;28;20068;-82
2023/03/04 05:29:30;;;;;;;20.25;9.18;;;;;;;0.76;70.21;100593.97;5015936;28;20037;-82
2023/03/04 05:31:57;;;;;;;22.55;9.68;;;;;;;0.83;70.29;100603.31;5035973;28;20061;-82
2023/03/04 05:34:24;;;;;;;18.33;8.77;;;;;;;0.86;70.67;100600.59;5022301;28;20099;-82
2023/03/04 05:36:50;;;;;;;20.45;8.95;;;;;;;0.89;70.64;100603.13;5019805;28;20049;-82
2023/03/04 05:39:17;;;;;;;22.20;10.02;;;;;;;0.86;70.89;100601.44;5019859;28;20052;-82
2023/03/04 05:41:44;;;;;;;22.27;10.32;;;;;;;0.90;70.76;100601.34;4992693;28;20038;-81
2023/03/04 05:44:11;;;;;;;22.17;10.38;;;;;;;0.99;71.06;100604.50;5009531;28;20043;-81
2023/03/04 05:46:37;;;;;;;23.00;10.35;;;;;;;1.01;70.99;100604.41;5009657;28;20052;-82
2023/03/04 05:49:04;;;;;;;22.08;9.45;;;;;;;1.03;71.14;100600.84;5007712;28;20041;-82
2023/03/04 05:51:31;;;;;;;20.33;9.80;;;;;;;1.07;71.23;100604.22;5033276;28;20055;-82
2023/03/04 05:53:58;;;;;;;20.85;9.85;;;;;;;1.06;71.31;100600.72;5027219;28;21298;-82
2023/03/04 05:56:25;;;;;;;19.83;10.25;;;;;;;1.10;71.83;100598.00;5024425;28;20052;-82
2023/03/04 05:58:51;;;;;;;24.05;9.82;;;;;;;1.08;71.95;100596.28;4992380;28;20125;-82
2023/03/04 06:01:18;;;;;;;25.20;10.80;;;;;;;1.08;72.04;100592.81;5040658;28;20041;-82
2023/03/04 06:03:47;;;;;;;29.27;10.73;;;;;;;1.15;72.19;100602.16;5023039;28;20103;-81
2023/03/04 06:06:14;;;;;;;21.83;9.85;;;;;;;1.09;72.36;100599.75;5030494;28;20065;-82
2023/03/04 06:08:40;;;;;;;22.00;10.05;;;;;;;1.08;72.58;100596.28;4992876;28;20041;-83
2023/03/04 06:11:07;;;;;;;19.95;9.90;;;;;;;1.20;72.48;100591.53;5005505;28;20479;-82
2023/03/04 06:13:34;;;;;;;21.67;10.25;;;;;;;1.21;72.30;100601.06;5017070;28;20044;-82
2023/03/04 06:16:01;;;;;;;24.08;11.00;;;;;;;1.22;72.15;100600.13;5001833;28;20076;-84
2023/03/04 06:18:28;;;;;;;26.23;11.75;;;;;;;1.20;72.83;100607.22;5035105;28;20056;-82
2023/03/04 06:20:58;;;;;;;25.05;11.50;;;;;;;1.24;72.88;100616.63;5009290;28;20041;-82
2023/03/04 06:23:25;;;;;;;22.95;11.25;;;;;;;1.28;72.49;100607.78;5013262;28;20048;-81
2023/03/04 06:25:53;;;;;;;24.05;11.07;;;;;;;1.33;72.81;100618.06;4992174;28;20499;-82
2023/03/04 06:28:20;;;;;;;26.73;12.05;;;;;;;1.33;73.42;100615.47;5006821;28;20607;-82
2023/03/04 06:30:47;;;;;;;21.83;11.50;;;;;;;1.34;73.44;100625.84;5019405;28;20044;-81
2023/03/04 06:33:13;;;;;;;20.25;9.85;;;;;;;1.42;73.45;100623.78;5030843;28;20450;-81
2023/03/04 06:35:40;;;;;;;25.08;11.13;;;;;;;1.41;72.99;100636.94;5007958;28;20083;-82
2023/03/04 06:38:07;;;;;;;23.17;10.65;;;;;;;1.48;72.77;100630.56;4991744;28;20460;-82
2023/03/04 06:40:34;;;;;;;24.05;11.02;;;;;;;1.43;73.30;100635.97;5016592;28;20410;-84
2023/03/04 06:43:01;;;;;;;29.45;12.00;;;;;;;1.46;73.21;100640.25;4996417;28;20053;-82
2023/03/04 06:45:28;;;;;;;26.45;11.75;;;;;;;1.47;73.06;100640.16;5021064;28;20045;-82
2023/03/04 06:47:54;;;;;;;22.35;10.65;;;;;;;1.47;74.04;100641.94;5005765;28;20978;-82
2023/03/04 06:50:21;;;;;;;25.10;11.15;;;;;;;1.43;74.04;100643.84;5019621;28;20819;-82
2023/03/04 06:52:48;;;;;;;23.48;10.50;;;;;;;1.52;73.63;100645.22;4991576;28;20552;-82
2023/03/04 06:55:14;;;;;;;22.67;11.43;;;;;;;1.56;73.76;100646.84;5005140;28;20095;-81
2023/03/04 06:57:41;;;;;;;26.05;12.40;;;;;;;1.59;73.94;100653.72;5033107;28;20052;-81
2023/03/04 07:00:09;;;;;;;24.85;11.00;;;;;;;1.59;74.12;100648.47;4992499;28;20045;-81
2023/03/04 07:02:35;;;;;;;25.75;11.73;;;;;;;1.62;73.96;100654.44;5032764;28;20132;-81
2023/03/04 07:05:02;;;;;;;29.20;11.80;;;;;;;1.69;73.80;100652.44;5018403;28;20053;-82
2023/03/04 07:07:29;;;;;;;24.85;10.32;;;;;;;1.68;73.97;100654.22;5037233;28;20045;-82
2023/03/04 07:09:57;;;;;;;27.38;11.50;;;;;;;1.65;74.07;100653.47;5009803;28;20046;-81
2023/03/04 07:12:24;;;;;;;28.42;12.27;;;;;;;1.65;74.00;100658.72;5030678;28;20026;-88
2023/03/04 07:14:52;;;;;;;31.38;12.10;;;;;;;1.62;74.76;100657.06;4970142;28;20567;-82
2023/03/04 07:17:26;;;;;;;28.13;11.98;;;;;;;1.67;74.79;100667.34;5010945;28;20120;-89
2023/03/04 07:19:52;;;;;;;24.90;11.90;;;;;;;1.64;74.95;100665.72;5019097;28;20045;-89
2023/03/04 07:22:19;;;;;;;23.90;10.68;;;;;;;1.68;75.28;100659.47;5048915;28;20041;-90
2023/03/04 07:24:46;;;;;;;28.92;11.82;;;;;;;1.66;75.34;100660.44;5034014;28;20049;-90
2023/03/04 07:27:12;;;;;;;25.42;11.10;;;;;;;1.74;74.48;100667.06;5021804;28;20064;-85
2023/03/04 07:29:39;;;;;;;22.98;10.82;;;;;;;1.71;75.54;100663.72;5031820;28;20500;-85
2023/03/04 07:32:07;;;;;;;27.08;11.15;;;;;;;1.71;75.96;100669.81;5033639;28;20450;-84
2023/03/04 07:34:34;;;;;;;24.92;10.57;;;;;;;1.74;75.86;100663.59;5025500;28;20061;-84
2023/03/04 07:37:01;;;;;;;22.13;10.52;;;;;;;1.84;75.45;100670.19;5027464;28;21331;-84
2023/03/04 07:39:27;;;;;;;25.60;11.18;;;;;;;1.90;75.40;100675.16;5041248;28;20071;-85
2023/03/04 07:41:54;;;;;;;28.75;12.98;;;;;;;1.86;75.30;100667.53;5003353;28;20044;-84
2023/03/04 07:44:21;;;;;;;28.10;12.90;;;;;;;1.86;75.64;100672.75;5031980;28;20045;-83
2023/03/04 07:46:48;;;;;;;25.52;12.13;;;;;;;1.85;75.87;100666.66;5022624;28;20136;-84
2023/03/04 07:49:15;;;;;;;27.88;12.48;;;;;;;1.85;75.94;100673.66;5008452;28;20132;-84
2023/03/04 07:51:41;;;;;;;23.70;11.88;;;;;;;1.84;75.79;100672.81;5033937;28;20116;-84
2023/03/04 07:54:08;;;;;;;29.52;12.48;;;;;;;1.87;75.57;100675.31;5019422;28;20128;-84
2023/03/04 07:56:35;;;;;;;26.30;13.32;;;;;;;1.98;75.31;100677.50;5025905;28;20045;-84
2023/03/04 07:59:02;;;;;;;30.48;14.07;;;;;;;1.98;75.55;100679.25;5040635;28;20053;-85
2023/03/04 08:01:34;;;;;;;34.60;15.77;;;;;;;1.98;75.48;100674.03;5033331;28;20064;-85
2023/03/04 08:04:03;;;;;;;26.17;12.10;;;;;;;2.08;75.25;100684.06;4997864;28;20433;-85
2023/03/04 08:06:30;;;;;;;28.45;12.73;;;;;;;2.12;75.37;100674.34;4991420;28;20038;-85
2023/03/04 08:09:00;;;;;;;28.70;12.68;;;;;;;2.16;75.70;100674.16;4981303;28;20065;-84
2023/03/04 08:11:28;;;;;;;27.25;12.18;;;;;;;2.14;76.10;100680.38;4961462;28;20045;-84
2023/03/04 08:13:55;;;;;;;28.00;12.98;;;;;;;2.16;75.79;100673.28;4970560;28;20666;-84
2023/03/04 08:16:23;;;;;;;29.30;12.43;;;;;;;2.23;75.57;100672.13;4973533;28;20046;-84
2023/03/04 08:18:52;;;;;;;31.13;12.57;;;;;;;2.21;75.90;100679.19;4979458;28;20137;-84
2023/03/04 08:21:20;;;;;;;24.80;12.50;;;;;;;2.26;75.74;100674.63;4972564;28;20485;-84
2023/03/04 08:23:47;;;;;;;27.85;12.73;;;;;;;2.25;76.17;100662.44;4970168;28;20038;-84
2023/03/04 08:26:21;;;;;;;22.80;11.57;;;;;;;2.25;75.99;100675.53;4979656;28;20591;-84
2023/03/04 08:28:48;;;;;;;30.48;13.43;;;;;;;2.32;75.82;100679.63;4956548;28;20043;-84
2023/03/04 08:31:15;;;;;;;34.13;13.75;;;;;;;2.37;75.73;100676.81;5028597;28;20489;-84
2023/03/04 08:33:43;;;;;;;30.17;11.48;;;;;;;2.39;75.59;100683.72;5030941;28;20049;-85
2023/03/04 08:36:10;;;;;;;25.10;11.85;;;;;;;2.35;76.21;100683.88;5035717;28;20041;-84
2023/03/04 08:38:37;;;;;;;27.88;13.00;;;;;;;2.41;75.90;100683.63;5021329;28;20030;-84
2023/03/04 08:41:04;;;;;;;28.23;12.90;;;;;;;2.40;75.94;100679.31;5016924;28;20519;-84
2023/03/04 08:43:32;;;;;;;27.52;12.18;;;;;;;2.43;75.78;100678.34;5026871;28;20418;-84
2023/03/04 08:45:58;;;;;;;30.85;13.63;;;;;;;2.46;75.87;100680.81;5009455;28;20411;-85
2023/03/04 08:48:25;;;;;;;31.02;12.48;;;;;;;2.44;75.59;100675.63;5012279;28;20429;-85
2023/03/04 08:50:52;;;;;;;26.33;12.38;;;;;;;2.43;75.70;100676.56;5016837;28;20183;-84
2023/03/04 08:53:19;;;;;;;27.17;12.95;;;;;;;2.45;76.22;100676.50;5033677;28;20048;-84
2023/03/04 08:55:46;;;;;;;28.83;13.75;;;;;;;2.45;75.69;100687.84;5017961;28;20049;-85
2023/03/04 08:58:13;;;;;;;28.02;13.45;;;;;;;2.48;75.51;100679.00;5025596;28;20467;-84
2023/03/04 09:00:47;;;;;;;28.15;13.25;;;;;;;2.50;75.94;100680.63;5035477;28;20128;-84
2023/03/04 09:03:14;;;;;;;31.52;14.30;;;;;;;2.50;75.95;100680.63;4989253;28;20511;-85
2023/03/04 09:05:41;;;;;;;29.67;13.65;;;;;;;2.67;75.31;100679.06;5022741;28;20045;-85
2023/03/04 09:08:08;;;;;;;30.63;12.85;;;;;;;2.63;76.09;100678.34;5018918;28;20047;-84
2023/03/04 09:10:35;;;;;;;30.95;13.40;;;;;;;2.68;76.27;100678.16;5043986;28;20072;-84
2023/03/04 09:13:01;;;;;;;33.53;14.23;;;;;;;2.70;76.11;100671.94;5014792;28;20385;-85
2023/03/04 09:15:28;;;;;;;30.83;13.70;;;;;;;2.70;76.16;100677.19;5021642;28;20045;-83
2023/03/04 09:17:55;;;;;;;26.38;13.63;;;;;;;2.72;75.75;100675.34;5024140;28;20420;-82
2023/03/04 09:20:22;;;;;;;31.08;14.32;;;;;;;2.79;75.24;100675.94;5020004;28;20052;-83
2023/03/04 09:22:48;;;;;;;35.97;13.50;;;;;;;2.79;75.79;100676.78;5019884;28;20053;-83
2023/03/04 09:25:15;;;;;;;32.10;13.00;;;;;;;2.83;75.71;100683.59;5017670;28;20407;-84
2023/03/04 09:27:42;;;;;;;29.73;13.45;;;;;;;2.86;75.57;100677.38;5023631;28;20438;-83
2023/03/04 09:30:09;;;;;;;29.42;14.00;;;;;;;2.89;75.50;100685.09;5037666;28;20041;-83
2023/03/04 09:32:36;;;;;;;33.58;16.25;;;;;;;2.94;75.41;100677.03;4985687;28;20049;-84
2023/03/04 09:35:04;;;;;;;31.10;14.45;;;;;;;2.92;75.60;100686.75;5031368;28;20080;-83
2023/03/04 09:37:30;;;;;;;34.78;14.07;;;;;;;2.93;75.24;100684.06;5019236;28;20125;-84
2023/03/04 09:39:57;;;;;;;27.45;14.23;;;;;;;2.95;74.85;100687.47;5024456;28;20100;-83
2023/03/04 09:42:27;;;;;;;32.10;15.27;;;;;;;2.97;74.72;100690.03;5033643;28;20060;-83
2023/03/04 09:44:54;;;;;;;32.83;15.48;;;;;;;3.00;74.73;100682.00;5034268;28;20052;-84
2023/03/04 09:47:22;;;;;;;33.45;14.85;;;;;;;3.06;74.38;100697.50;5019053;28;20049;-83
2023/03/04 09:49:59;;;;;;;33.00;15.27;;;;;;;3.03;74.43;100688.00;5033985;28;20049;-82
2023/03/04 09:52:33;;;;;;;33.75;15.20;;;;;;;3.05;73.94;100687.91;5031831;28;20051;-83
2023/03/04 09:55:24;;;;;;;30.45;14.10;;;;;;;3.04;73.99;100691.47;5015107;28;20041;-83
2023/03/04 09:57:52;;;;;;;30.45;15.35;;;;;;;3.10;73.59;100690.34;4989344;28;20049;-83
2023/03/04 10:00:23;;;;;;;32.83;15.68;;;;;;;3.13;73.54;100703.31;5014649;28;20041;-84
2023/03/04 10:03:10;;;;;;;30.70;15.50;;;;;;;3.10;74.15;100685.09;4983080;28;20056;-84
2023/03/04 10:06:17;;;;;;;31.98;15.30;;;;;;;3.12;73.86;100699.00;4973019;28;20489;-83
2023/03/04 10:09:17;;;;;;;34.30;16.30;;;;;;;3.12;73.74;100691.97;4878433;28;20569;-83
2023/03/04 10:11:48;;;;;;;34.10;15.07;;;;;;;3.18;72.97;100688.22;4855655;28;20054;-83
2023/03/04 10:14:20;;;;;;;35.97;15.27;;;;;;;3.21;73.17;100685.50;4997538;28;20136;-83
2023/03/04 10:16:55;;;;;;;29.38;15.50;;;;;;;3.22;72.66;100688.03;5031579;28;20063;-83
2023/03/04 10:19:31;;;;;;;37.08;16.83;;;;;;;3.24;72.52;100690.59;5005154;28;20056;-83
2023/03/04 10:21:58;;;;;;;34.50;16.63;;;;;;;3.25;72.37;100681.78;5033430;28;20057;-83
2023/03/04 10:24:28;;;;;;;31.70;15.45;;;;;;;3.30;72.11;100686.84;5008009;28;20045;-83
2023/03/04 10:27:00;;;;;;;32.25;16.02;;;;;;;3.34;71.65;100688.41;5030174;28;20041;-83
2023/03/04 10:29:27;;;;;;;31.70;16.17;;;;;;;3.39;71.51;100687.28;5006158;28;20041;-83
2023/03/04 10:31:55;;;;;;;38.22;16.13;;;;;;;3.41;71.64;100679.31;5017238;28;20415;-83
2023/03/04 10:34:22;;;;;;;35.63;16.23;;;;;;;3.44;71.33;100682.69;5008200;28;20045;-84
2023/03/04 10:37:01;;;;;;;33.58;16.58;;;;;;;3.43;71.29;100680.13;5016980;28;20045;-83
2023/03/04 10:39:31;;;;;;;36.85;16.20;;;;;;;3.46;70.85;100685.22;5009214;28;20638;-84
2023/03/04 10:42:00;;;;;;;33.75;16.52;;;;;;;3.48;70.33;100691.25;5031146;28;20125;-84
2023/03/04 10:44:27;;;;;;;34.17;16.27;;;;;;;3.48;69.94;100683.38;5014570;28;20103;-83
2023/03/04 10:46:56;;;;;;;30.42;16.60;;;;;;;3.50;69.51;100675.44;5034762;28;20484;-84
2023/03/04 10:49:24;;;;;;;35.58;17.02;;;;;;;3.42;69.34;100678.41;5017415;28;20051;-84
2023/03/04 10:52:01;;;;;;;31.33;16.70;;;;;;;3.42;69.33;100676.63;5015916;28;20041;-83
2023/03/04 10:54:49;;;;;;;30.77;17.02;;;;;;;3.43;68.66;100669.59;5013818;28;20156;-84
2023/03/04 10:57:18;;;;;;;33.00;17.15;;;;;;;3.47;68.95;100668.56;4975324;28;20042;-84
2023/03/04 10:59:56;;;;;;;35.42;17.65;;;;;;;3.37;67.33;100665.50;5032733;28;20042;-84
2023/03/04 11:02:28;;;;;;;32.65;15.85;;;;;;;3.46;67.98;100672.09;5020689;28;20053;-84
2023/03/04 11:05:13;;;;;;;34.50;16.80;;;;;;;3.44;67.62;100663.47;5021725;28;20443;-84
2023/03/04 11:07:42;;;;;;;34.38;16.40;;;;;;;3.50;68.53;100664.94;4990130;28;20136;-84
2023/03/04 11:10:35;;;;;;;35.95;17.20;;;;;;;3.51;67.85;100658.75;4987727;28;20045;-84
2023/03/04 11:13:11;;;;;;;30.13;16.20;;;;;;;3.50;67.49;100655.28;5013403;28;20049;-84
2023/03/04 11:16:05;;;;;;;35.03;17.42;;;;;;;3.48;67.63;100650.09;5033680;28;20103;-84
2023/03/04 11:18:42;;;;;;;;;;;;;;;3.43;67.75;100651.22;4976899;28;20041;-84
2023/03/04 11:21:27;;;;;;;32.05;15.85;;;;;;;3.49;67.60;100656.22;5017210;28;19920;-84
2023/03/04 11:24:03;;;;;;;33.70;15.85;;;;;;;3.50;67.12;100649.19;4954126;28;20497;-85
2023/03/04 11:26:31;;;;;;;32.08;16.33;;;;;;;3.52;67.37;100647.34;5029204;28;20455;-84